Time;durP1;ratioP1;P1;durP2;ratioP2;P2;SDS_P1;SDS_P2;PMS_P1;PMS_P2;Temp;Humidity;BMP_temperature;BMP_pressure;BME280_temperature;BME280_humidity;BME280_pressure;Samples;Min_cycle;Max_cycle;Signal;HPM_P1;HPM_P2
2023/07/08 00:00:41;;;;;;;7.20;4.93;;;21.20;84.60;;;;;;4968159;28;20242;-71
2023/07/08 00:03:30;;;;;;;7.55;4.63;;;21.30;87.40;;;;;;4975428;28;20338;-72
2023/07/08 00:06:21;;;;;;;8.10;4.95;;;21.10;85.60;;;;;;4972360;28;20275;-71
2023/07/08 00:09:15;;;;;;;7.05;5.13;;;21.10;86.70;;;;;;4973574;28;20404;-73
2023/07/08 00:12:09;;;;;;;9.07;5.18;;;21.00;84.90;;;;;;4985940;28;20238;-73
2023/07/08 00:14:58;;;;;;;8.55;5.25;;;20.90;87.70;;;;;;4973929;28;20695;-71
2023/07/08 00:17:47;;;;;;;8.60;5.25;;;20.80;88.20;;;;;;4977935;28;20223;-73
2023/07/08 00:20:39;;;;;;;8.60;5.45;;;20.90;90.50;;;;;;4991966;28;20837;-72
2023/07/08 00:23:28;;;;;;;9.45;5.00;;;20.90;87.30;;;;;;4979321;28;20316;-71
2023/07/08 00:26:22;;;;;;;13.88;5.80;;;20.80;88.60;;;;;;4977123;28;20794;-72
2023/07/08 00:29:12;;;;;;;10.40;5.68;;;20.70;87.40;;;;;;4975124;28;20222;-71
2023/07/08 00:32:02;;;;;;;5.85;5.13;;;20.70;90.40;;;;;;4984388;28;20223;-71
2023/07/08 00:34:51;;;;;;;9.32;5.45;;;20.80;90.50;;;;;;4985220;28;20418;-71
2023/07/08 00:37:40;;;;;;;8.82;5.80;;;20.70;89.00;;;;;;4979343;28;20234;-71
2023/07/08 00:40:31;;;;;;;12.68;6.07;;;20.60;90.90;;;;;;4974686;28;20246;-71
2023/07/08 00:43:30;;;;;;;11.30;6.32;;;20.60;90.00;;;;;;4979402;28;20269;-71
2023/07/08 00:46:30;;;;;;;8.35;5.53;;;20.60;90.00;;;;;;4982490;28;20233;-71
2023/07/08 00:49:33;;;;;;;9.52;5.90;;;20.60;91.30;;;;;;4981706;28;20359;-72
2023/07/08 00:52:25;;;;;;;9.73;6.35;;;20.60;90.70;;;;;;4979403;28;20305;-72
2023/07/08 00:55:15;;;;;;;9.98;6.10;;;20.50;91.80;;;;;;4991025;28;20292;-73
2023/07/08 00:58:04;;;;;;;11.05;6.43;;;20.60;91.50;;;;;;4995414;28;20222;-68
2023/07/08 01:00:57;;;;;;;9.48;5.93;;;20.30;90.60;;;;;;4995581;28;20227;-69
2023/07/08 01:03:51;;;;;;;9.70;6.00;;;20.30;91.80;;;;;;4983650;28;20350;-72
2023/07/08 01:06:45;;;;;;;9.60;6.07;;;20.40;91.50;;;;;;4980264;28;20219;-71
2023/07/08 01:09:38;;;;;;;11.85;6.18;;;20.20;91.30;;;;;;4976095;28;20219;-71
2023/07/08 01:12:31;;;;;;;11.77;6.18;;;20.30;91.40;;;;;;4982879;28;20250;-68
2023/07/08 01:15:22;;;;;;;10.65;5.90;;;20.30;92.70;;;;;;4977125;28;20417;-69
2023/07/08 01:18:16;;;;;;;14.25;6.00;;;20.30;91.70;;;;;;4977220;28;20297;-70
2023/07/08 01:21:07;;;;;;;8.73;6.25;;;20.20;93.10;;;;;;4981843;28;20222;-71
2023/07/08 01:23:58;;;;;;;9.55;6.00;;;20.30;93.10;;;;;;4982078;28;20542;-70
2023/07/08 01:26:47;;;;;;;11.25;5.82;;;20.20;92.50;;;;;;4974494;28;20390;-72
2023/07/08 01:29:36;;;;;;;10.70;5.70;;;20.10;92.30;;;;;;4978386;28;20603;-71
2023/07/08 01:32:25;;;;;;;8.38;5.15;;;20.00;92.50;;;;;;4986249;28;20309;-71
2023/07/08 01:35:15;;;;;;;11.65;5.20;;;20.00;93.30;;;;;;4979215;28;20219;-72
2023/07/08 01:38:06;;;;;;;13.82;6.03;;;19.90;92.80;;;;;;4979362;28;20241;-71
2023/07/08 01:40:58;;;;;;;10.98;5.97;;;19.90;93.80;;;;;;4962099;28;20238;-71
2023/07/08 01:43:47;;;;;;;9.00;6.07;;;19.80;92.90;;;;;;4973321;28;20219;-71
2023/07/08 01:46:36;;;;;;;8.55;5.72;;;19.80;93.30;;;;;;4969983;28;20228;-71
2023/07/08 01:49:26;;;;;;;9.32;6.20;;;19.80;93.30;;;;;;4974205;28;20737;-71
2023/07/08 01:52:17;;;;;;;12.23;6.40;;;19.80;94.00;;;;;;4976570;28;20354;-70
2023/07/08 01:55:08;;;;;;;11.40;6.35;;;19.90;94.70;;;;;;4990401;28;20306;-71
2023/07/08 01:57:58;;;;;;;10.80;6.15;;;19.80;93.10;;;;;;4977492;28;20273;-71
2023/07/08 02:00:48;;;;;;;10.23;6.38;;;19.70;93.10;;;;;;4973516;28;20219;-71
2023/07/08 02:03:37;;;;;;;7.28;5.78;;;19.70;92.90;;;;;;4962629;28;20231;-72
2023/07/08 02:06:26;;;;;;;8.20;6.10;;;19.80;94.40;;;;;;4997986;28;20574;-73
2023/07/08 02:09:16;;;;;;;9.68;5.78;;;19.70;93.00;;;;;;4993959;28;20270;-72
2023/07/08 02:12:05;;;;;;;8.00;6.05;;;19.70;93.90;;;;;;4969432;28;20315;-71
2023/07/08 02:14:56;;;;;;;12.75;6.10;;;19.60;93.30;;;;;;4970657;28;20236;-71
2023/07/08 02:17:45;;;;;;;9.80;6.38;;;19.70;94.30;;;;;;4975048;28;20218;-72
2023/07/08 02:20:34;;;;;;;7.95;6.05;;;19.70;94.50;;;;;;4985351;28;20234;-73
2023/07/08 02:23:23;;;;;;;8.07;6.47;;;19.50;93.20;;;;;;4984699;28;20732;-72
2023/07/08 02:26:14;;;;;;;11.35;6.05;;;19.50;93.40;;;;;;4975903;28;20234;-71
2023/07/08 02:29:03;;;;;;;12.60;6.68;;;19.60;95.00;;;;;;4987357;28;20726;-71
2023/07/08 02:31:58;;;;;;;8.82;6.90;;;19.70;94.00;;;;;;4979525;28;20230;-70
2023/07/08 02:34:47;;;;;;;12.43;6.78;;;19.50;94.80;;;;;;4968586;28;20224;-70
2023/07/08 02:37:36;;;;;;;9.63;6.53;;;19.40;93.70;;;;;;4995781;28;20686;-72
2023/07/08 02:40:26;;;;;;;14.32;7.30;;;19.40;94.40;;;;;;4990971;28;20242;-71
2023/07/08 02:43:15;;;;;;;13.80;7.32;;;19.50;94.70;;;;;;4974419;28;20229;-72
2023/07/08 02:46:04;;;;;;;9.85;7.45;;;19.50;95.70;;;;;;4978263;28;20235;-72
2023/07/08 02:48:54;;;;;;;10.73;7.13;;;19.50;96.00;;;;;;4980358;28;20593;-72
2023/07/08 02:51:43;;;;;;;10.52;7.45;;;19.40;96.50;;;;;;4972725;28;20222;-72
2023/07/08 02:54:32;;;;;;;13.63;7.28;;;19.10;96.10;;;;;;4989827;28;20309;-73
2023/07/08 02:57:21;;;;;;;15.25;7.43;;;19.20;96.20;;;;;;4993514;28;20231;-73
2023/07/08 03:00:13;;;;;;;12.82;7.15;;;19.40;97.40;;;;;;4990324;28;20233;-73
2023/07/08 03:03:02;;;;;;;11.10;7.20;;;19.40;97.10;;;;;;4984283;28;20647;-74
2023/07/08 03:06:00;;;;;;;12.90;6.78;;;19.40;97.00;;;;;;4977101;28;20227;-71
2023/07/08 03:08:49;;;;;;;12.98;6.78;;;19.10;97.20;;;;;;4977752;28;20219;-71
2023/07/08 03:11:41;;;;;;;12.20;7.03;;;19.30;96.70;;;;;;4970188;28;20238;-73
2023/07/08 03:14:30;;;;;;;10.88;6.70;;;19.40;97.30;;;;;;4983744;28;20241;-72
2023/07/08 03:17:19;;;;;;;12.48;7.20;;;19.30;96.80;;;;;;4977523;28;20226;-72
2023/07/08 03:20:10;;;;;;;14.80;7.10;;;19.20;96.70;;;;;;4982083;28;20439;-73
2023/07/08 03:23:03;;;;;;;11.45;7.03;;;19.50;96.80;;;;;;4986132;28;20687;-71
2023/07/08 03:25:52;;;;;;;10.32;6.45;;;19.40;95.70;;;;;;4973798;28;20233;-72
2023/07/08 03:28:42;;;;;;;11.63;6.50;;;19.40;96.70;;;;;;4967318;28;20358;-72
2023/07/08 03:31:32;;;;;;;11.20;6.53;;;19.50;95.90;;;;;;4979775;28;20235;-71
2023/07/08 03:34:21;;;;;;;11.45;7.63;;;19.40;95.50;;;;;;4988956;28;20701;-72
2023/07/08 03:37:10;;;;;;;12.30;6.65;;;19.30;95.90;;;;;;4982926;28;20230;-71
2023/07/08 03:40:00;;;;;;;12.88;7.00;;;19.30;96.40;;;;;;4980315;28;20337;-72
2023/07/08 03:42:50;;;;;;;9.40;6.75;;;19.30;96.00;;;;;;4984229;28;20241;-71
2023/07/08 03:45:39;;;;;;;11.13;7.22;;;19.50;96.50;;;;;;4993766;28;20230;-73
2023/07/08 03:48:31;;;;;;;11.95;6.85;;;19.60;95.60;;;;;;4981348;28;20710;-73
2023/07/08 03:51:23;;;;;;;9.88;6.57;;;19.70;95.10;;;;;;5001630;28;20223;-72
2023/07/08 03:54:15;;;;;;;8.40;6.72;;;19.70;95.50;;;;;;4975300;28;20215;-72
2023/07/08 03:57:05;;;;;;;9.63;6.32;;;19.70;94.50;;;;;;4980097;28;20717;-73
2023/07/08 03:59:54;;;;;;;10.27;7.10;;;19.90;95.10;;;;;;4981365;28;20291;-73
2023/07/08 04:02:44;;;;;;;12.30;7.00;;;20.10;95.20;;;;;;4985705;28;20237;-73
2023/07/08 04:05:39;;;;;;;13.18;7.35;;;20.20;95.00;;;;;;4968847;28;20749;-73
2023/07/08 04:08:28;;;;;;;9.25;7.13;;;20.20;94.60;;;;;;4995351;28;20234;-71
2023/07/08 04:11:20;;;;;;;9.45;6.65;;;20.30;95.30;;;;;;4986019;28;20238;-71
2023/07/08 04:14:11;;;;;;;11.00;7.07;;;20.40;93.70;;;;;;4993653;28;20965;-70
2023/07/08 04:17:02;;;;;;;9.00;7.22;;;20.20;94.00;;;;;;4983026;28;20748;-70
2023/07/08 04:19:51;;;;;;;14.32;6.75;;;20.20;94.50;;;;;;4983247;28;20317;-70
2023/07/08 04:22:40;;;;;;;12.77;7.20;;;20.30;94.40;;;;;;4982912;28;20232;-70
2023/07/08 04:25:29;;;;;;;10.50;7.35;;;20.40;94.40;;;;;;4970542;28;20222;-70
2023/07/08 04:28:18;;;;;;;10.85;6.35;;;20.50;93.70;;;;;;4976059;28;20309;-71
2023/07/08 04:31:08;;;;;;;13.27;6.75;;;20.60;93.70;;;;;;4991254;28;20794;-71
2023/07/08 04:33:57;;;;;;;8.98;7.18;;;20.80;95.00;;;;;;4974726;28;20221;-70
2023/07/08 04:36:46;;;;;;;11.20;6.10;;;20.90;94.00;;;;;;4969481;28;20226;-70
2023/07/08 04:39:35;;;;;;;10.73;6.70;;;20.90;93.30;;;;;;4995860;28;20361;-72
2023/07/08 04:42:24;;;;;;;11.00;5.75;;;21.00;93.20;;;;;;4982469;28;20689;-72
2023/07/08 04:45:13;;;;;;;12.13;5.97;;;21.10;93.00;;;;;;4979820;28;20717;-71
2023/07/08 04:48:08;;;;;;;9.18;5.88;;;21.20;92.20;;;;;;4986551;28;20230;-72
2023/07/08 04:50:57;;;;;;;6.88;5.55;;;21.30;92.20;;;;;;4978152;28;20222;-71
2023/07/08 04:53:46;;;;;;;9.55;5.90;;;21.40;92.40;;;;;;4987303;28;20335;-72
2023/07/08 04:56:38;;;;;;;7.88;5.55;;;21.40;92.00;;;;;;4969628;28;20231;-72
2023/07/08 04:59:27;;;;;;;10.18;5.78;;;21.60;91.90;;;;;;4979785;28;20537;-72
2023/07/08 05:02:16;;;;;;;9.52;5.53;;;21.80;92.90;;;;;;4979467;28;20222;-71
2023/07/08 05:05:06;;;;;;;8.60;5.47;;;21.90;91.90;;;;;;4988399;28;20315;-71
2023/07/08 05:07:55;;;;;;;9.50;5.03;;;22.00;91.90;;;;;;4977863;28;20273;-71
2023/07/08 05:10:44;;;;;;;7.78;5.30;;;22.10;91.00;;;;;;4988407;28;20987;-71
2023/07/08 05:13:33;;;;;;;8.15;5.22;;;22.20;90.70;;;;;;4975074;28;20231;-72
2023/07/08 05:16:22;;;;;;;7.35;4.80;;;22.30;90.70;;;;;;4978153;28;20223;-71
2023/07/08 05:19:11;;;;;;;7.65;4.70;;;22.40;90.20;;;;;;4976625;28;20229;-72
2023/07/08 05:22:05;;;;;;;7.97;4.65;;;22.50;90.40;;;;;;4980799;28;20227;-70
2023/07/08 05:24:55;;;;;;;6.60;4.97;;;22.60;90.50;;;;;;4985328;28;20234;-71
2023/07/08 05:27:44;;;;;;;8.63;4.88;;;22.50;89.00;;;;;;4974422;28;20322;-71
2023/07/08 05:30:33;;;;;;;8.40;5.40;;;22.60;88.40;;;;;;4988078;28;20234;-70
2023/07/08 05:33:22;;;;;;;8.75;4.97;;;22.60;89.00;;;;;;4986866;28;20228;-70
2023/07/08 05:36:11;;;;;;;8.27;5.20;;;22.80;88.90;;;;;;4975212;28;20226;-71
2023/07/08 05:39:01;;;;;;;10.30;5.43;;;22.90;89.60;;;;;;4973984;28;20234;-71
2023/07/08 05:41:50;;;;;;;9.82;5.38;;;23.00;87.00;;;;;;4978444;28;20267;-70
2023/07/08 05:44:39;;;;;;;6.75;4.70;;;23.00;86.90;;;;;;4974409;28;20585;-69
2023/07/08 05:47:28;;;;;;;7.38;4.38;;;23.10;86.80;;;;;;4979745;28;20234;-71
2023/07/08 05:50:17;;;;;;;7.38;4.50;;;23.30;86.70;;;;;;4989622;28;20223;-71
2023/07/08 05:53:06;;;;;;;7.00;4.18;;;23.30;86.20;;;;;;4974655;28;20243;-70
2023/07/08 05:55:56;;;;;;;7.32;4.28;;;23.30;84.60;;;;;;4973576;28;20226;-72
2023/07/08 05:58:45;;;;;;;9.80;4.85;;;23.40;84.60;;;;;;4992279;28;20334;-71
2023/07/08 06:01:34;;;;;;;7.50;4.20;;;23.50;84.00;;;;;;4987769;28;20544;-74
2023/07/08 06:04:23;;;;;;;5.25;3.78;;;23.50;83.20;;;;;;4977181;28;20333;-73
2023/07/08 06:07:13;;;;;;;6.50;4.00;;;23.50;83.10;;;;;;4978633;28;20222;-74
2023/07/08 06:10:02;;;;;;;7.95;3.95;;;23.70;82.80;;;;;;4987275;28;20215;-71
2023/07/08 06:12:53;;;;;;;8.20;3.50;;;23.70;81.50;;;;;;4965296;28;20227;-72
2023/07/08 06:15:42;;;;;;;6.93;3.40;;;23.80;81.90;;;;;;4982923;28;20689;-71
2023/07/08 06:18:32;;;;;;;11.02;4.13;;;23.90;81.30;;;;;;4981382;28;20818;-72
2023/07/08 06:21:20;;;;;;;5.22;3.50;;;24.10;79.80;;;;;;4979078;28;20289;-71
2023/07/08 06:24:09;;;;;;;4.43;3.35;;;24.20;79.70;;;;;;4975863;28;20858;-70
2023/07/08 06:26:58;;;;;;;5.82;3.15;;;24.20;78.00;;;;;;4972989;28;20310;-70
2023/07/08 06:29:48;;;;;;;5.65;3.10;;;24.30;82.80;;;;;;4990219;28;20223;-71
2023/07/08 06:32:37;;;;;;;5.95;3.17;;;24.30;81.10;;;;;;4974683;28;20255;-74
2023/07/08 06:35:27;;;;;;;6.90;3.13;;;24.40;79.60;;;;;;4988633;28;20318;-72
2023/07/08 06:38:16;;;;;;;5.90;3.30;;;24.90;82.50;;;;;;4974134;28;20236;-73
2023/07/08 06:41:05;;;;;;;4.55;3.55;;;26.90;79.30;;;;;;4975910;28;20226;-72
2023/07/08 06:43:54;;;;;;;7.80;3.75;;;30.40;71.40;;;;;;4965706;28;20238;-74
2023/07/08 06:46:48;;;;;;;5.72;3.42;;;29.40;69.70;;;;;;4974857;28;20608;-75
2023/07/08 06:49:37;;;;;;;7.90;3.30;;;28.10;70.20;;;;;;4971468;28;20250;-72
2023/07/08 06:52:25;;;;;;;4.18;3.38;;;27.70;68.40;;;;;;4992875;28;20230;-75
2023/07/08 06:55:14;;;;;;;7.10;3.70;;;27.50;72.90;;;;;;4980124;28;20314;-72
2023/07/08 06:58:03;;;;;;;9.90;3.83;;;27.00;70.70;;;;;;4978523;28;20233;-72
2023/07/08 07:00:52;;;;;;;8.23;4.10;;;26.60;72.90;;;;;;4973978;28;20230;-72
2023/07/08 07:03:42;;;;;;;5.38;3.78;;;26.40;73.10;;;;;;4975572;28;20321;-73
2023/07/08 07:06:32;;;;;;;5.45;3.50;;;26.20;71.20;;;;;;4967612;28;20224;-72
2023/07/08 07:09:20;;;;;;;5.35;3.53;;;26.20;72.40;;;;;;4976731;28;20238;-73
2023/07/08 07:12:10;;;;;;;4.35;3.38;;;26.10;70.20;;;;;;4967128;28;20226;-71
2023/07/08 07:14:59;;;;;;;12.25;4.10;;;26.30;69.60;;;;;;4977063;28;20694;-71
2023/07/08 07:17:48;;;;;;;5.68;3.17;;;26.40;69.40;;;;;;4976432;28;20219;-76
2023/07/08 07:20:39;;;;;;;4.85;2.95;;;26.70;68.50;;;;;;4975148;28;20234;-74
2023/07/08 07:23:28;;;;;;;6.47;3.55;;;26.70;66.80;;;;;;4975975;28;20226;-73
2023/07/08 07:26:16;;;;;;;4.60;3.05;;;27.00;67.40;;;;;;4966993;28;21015;-74
2023/07/08 07:29:06;;;;;;;8.30;3.13;;;27.20;66.40;;;;;;4975039;28;20228;-74
2023/07/08 07:31:55;;;;;;;4.35;2.50;;;27.60;67.40;;;;;;4977895;28;20306;-74
2023/07/08 07:34:48;;;;;;;3.80;2.33;;;28.00;66.40;;;;;;4980571;28;20227;-76
2023/07/08 07:37:38;;;;;;;3.58;2.38;;;28.30;62.90;;;;;;4973362;28;20230;-74
2023/07/08 07:40:27;;;;;;;5.47;2.85;;;28.70;62.20;;;;;;4975280;28;20709;-75
2023/07/08 07:43:16;;;;;;;4.72;2.28;;;29.20;64.30;;;;;;4978844;28;20346;-74
2023/07/08 07:46:05;;;;;;;2.58;2.28;;;29.50;66.20;;;;;;4974051;28;20235;-74
2023/07/08 07:48:54;;;;;;;4.10;2.35;;;29.80;64.30;;;;;;4974272;28;20737;-73
2023/07/08 07:51:42;;;;;;;4.38;2.42;;;30.10;58.60;;;;;;4983935;28;20781;-73
2023/07/08 07:54:33;;;;;;;8.23;2.65;;;30.20;58.60;;;;;;4968506;28;20318;-78
2023/07/08 07:57:22;;;;;;;2.97;2.40;;;30.60;59.40;;;;;;4971756;28;20238;-74
2023/07/08 08:00:13;;;;;;;5.05;2.53;;;30.90;57.20;;;;;;4977438;28;20289;-73
2023/07/08 08:03:05;;;;;;;4.78;2.33;;;31.30;57.00;;;;;;4987056;28;21161;-75
2023/07/08 08:05:54;;;;;;;3.22;2.38;;;31.60;58.90;;;;;;4979647;28;20313;-75
2023/07/08 08:08:43;;;;;;;5.47;2.30;;;31.90;58.70;;;;;;4971477;28;20226;-75
2023/07/08 08:11:34;;;;;;;3.20;2.20;;;31.80;59.60;;;;;;4981922;28;20250;-75
2023/07/08 08:14:23;;;;;;;3.88;2.38;;;31.70;56.50;;;;;;4983480;28;20365;-76
2023/07/08 08:17:14;;;;;;;4.32;2.60;;;31.80;54.60;;;;;;4978229;28;20225;-75
2023/07/08 08:20:04;;;;;;;3.60;2.00;;;31.60;57.40;;;;;;4985735;28;20632;-68
2023/07/08 08:22:53;;;;;;;4.72;2.00;;;32.00;56.80;;;;;;4967300;28;20324;-75
2023/07/08 08:25:42;;;;;;;3.10;2.03;;;32.20;56.50;;;;;;4971918;28;20234;-75
2023/07/08 08:28:32;;;;;;;2.72;2.10;;;32.60;54.80;;;;;;4979999;28;20234;-75
2023/07/08 08:31:21;;;;;;;2.47;2.28;;;33.00;59.50;;;;;;4978185;28;20223;-75
2023/07/08 08:34:10;;;;;;;5.07;2.70;;;32.90;57.50;;;;;;4981561;28;20245;-74
2023/07/08 08:36:59;;;;;;;3.25;1.92;;;32.80;52.50;;;;;;4980909;28;20689;-75
2023/07/08 08:39:48;;;;;;;3.95;2.10;;;32.40;53.00;;;;;;4982280;28;20237;-76
2023/07/08 08:42:42;;;;;;;3.70;2.00;;;32.80;56.50;;;;;;4969191;28;20230;-76
2023/07/08 08:45:40;;;;;;;3.85;2.60;;;33.10;54.80;;;;;;4978847;28;20222;-74
2023/07/08 08:48:34;;;;;;;3.67;2.30;;;33.30;53.80;;;;;;4971207;28;20305;-75
2023/07/08 08:51:26;;;;;;;2.45;2.03;;;33.10;54.50;;;;;;4974074;28;20242;-75
2023/07/08 08:54:14;;;;;;;2.08;1.90;;;33.30;55.50;;;;;;4975986;28;20302;-74
2023/07/08 08:57:14;;;;;;;2.80;2.17;;;33.10;50.80;;;;;;4985640;28;20219;-75
2023/07/08 09:00:04;;;;;;;4.57;2.35;;;33.10;54.10;;;;;;4979196;28;20231;-75
2023/07/08 09:03:04;;;;;;;4.80;2.35;;;33.60;54.30;;;;;;4982065;28;20241;-75
2023/07/08 09:05:52;;;;;;;3.90;2.45;;;33.90;53.70;;;;;;4970215;28;20235;-75
2023/07/08 09:08:43;;;;;;;5.30;2.53;;;34.00;53.80;;;;;;4977835;28;20223;-73
2023/07/08 09:11:45;;;;;;;3.08;2.20;;;34.30;53.20;;;;;;4964684;28;20269;-74
2023/07/08 09:14:35;;;;;;;2.47;2.25;;;33.90;50.70;;;;;;4984343;28;20229;-74
2023/07/08 09:17:32;;;;;;;3.50;2.00;;;33.20;54.20;;;;;;4984855;28;20370;-74
2023/07/08 09:20:28;;;;;;;3.45;2.20;;;32.80;52.80;;;;;;4974274;28;20235;-74
2023/07/08 09:23:22;;;;;;;5.03;2.35;;;33.50;56.20;;;;;;4985473;28;20226;-74
2023/07/08 09:26:18;;;;;;;4.47;2.35;;;33.90;54.50;;;;;;4984722;28;20221;-74
2023/07/08 09:29:09;;;;;;;3.22;2.60;;;34.40;55.90;;;;;;4974877;28;20226;-72
2023/07/08 09:31:59;;;;;;;4.18;2.42;;;34.70;52.90;;;;;;4990088;28;20227;-74
2023/07/08 09:34:51;;;;;;;4.30;2.40;;;35.00;54.90;;;;;;4976992;28;20230;-75
2023/07/08 09:37:47;;;;;;;4.13;2.47;;;35.20;52.30;;;;;;4994253;28;20226;-71
2023/07/08 09:40:36;;;;;;;4.38;2.38;;;35.70;52.90;;;;;;4996112;28;20226;-74
2023/07/08 09:43:29;;;;;;;2.47;2.15;;;35.50;50.90;;;;;;5000116;28;20234;-74
2023/07/08 09:46:20;;;;;;;2.85;2.15;;;34.10;54.60;;;;;;4986713;28;20777;-74
2023/07/08 09:49:18;;;;;;;3.55;2.20;;;35.10;50.60;;;;;;4978000;28;20266;-74
2023/07/08 09:52:07;;;;;;;3.63;2.67;;;35.80;51.10;;;;;;4976982;28;20222;-71
2023/07/08 09:54:58;;;;;;;3.47;2.30;;;37.30;51.60;;;;;;4994636;28;20345;-74
2023/07/08 09:57:50;;;;;;;4.40;2.33;;;37.90;49.70;;;;;;4979172;28;20218;-75
2023/07/08 10:00:41;;;;;;;2.60;2.22;;;38.20;51.90;;;;;;4975432;28;20273;-75
2023/07/08 10:03:33;;;;;;;3.08;2.22;;;39.80;50.30;;;;;;4977915;28;20248;-74
2023/07/08 10:06:27;;;;;;;4.53;2.20;;;40.70;46.50;;;;;;5000384;28;20749;-74
2023/07/08 10:09:21;;;;;;;2.47;2.28;;;41.50;47.80;;;;;;4983084;28;20458;-74
2023/07/08 10:12:14;;;;;;;3.05;2.33;;;41.80;47.60;;;;;;4982990;28;20705;-75
2023/07/08 10:15:14;;;;;;;4.05;2.10;;;41.20;44.90;;;;;;4992728;28;20241;-75
2023/07/08 10:18:03;;;;;;;3.17;2.20;;;41.30;45.80;;;;;;4990537;28;20225;-74
2023/07/08 10:21:11;;;;;;;2.55;2.20;;;41.20;42.70;;;;;;4977062;28;20222;-75
2023/07/08 10:24:20;;;;;;;3.35;2.30;;;38.20;45.30;;;;;;4963266;28;20215;-75
2023/07/08 10:27:21;;;;;;;5.03;2.20;;;39.30;47.00;;;;;;4979976;28;20225;-75
2023/07/08 10:30:20;;;;;;;7.20;2.30;;;41.70;46.50;;;;;;4983880;28;20226;-74
2023/07/08 10:33:31;;;;;;;4.15;2.42;;;41.00;42.20;;;;;;4984588;28;20775;-76
2023/07/08 10:36:29;;;;;;;2.20;2.00;;;42.90;44.80;;;;;;4982039;28;20230;-77
2023/07/08 10:39:47;;;;;;;2.33;1.92;;;43.90;42.90;;;;;;4981968;28;20717;-76
2023/07/08 10:42:55;;;;;;;5.32;1.98;;;44.30;42.80;;;;;;4971311;28;20226;-73
2023/07/08 10:45:53;;;;;;;5.90;2.22;;;42.30;41.20;;;;;;4983201;28;20724;-73
2023/07/08 10:49:16;;;;;;;2.67;2.03;;;39.40;43.30;;;;;;4987430;28;20262;-73
2023/07/08 10:52:27;;;;;;;3.08;2.00;;;41.30;46.50;;;;;;4965490;28;20222;-73
2023/07/08 10:55:28;;;;;;;4.25;1.90;;;41.90;44.40;;;;;;4970321;28;20218;-73
2023/07/08 10:58:43;;;;;;;2.25;2.05;;;43.50;41.80;;;;;;4975378;28;20224;-73
2023/07/08 11:01:43;;;;;;;3.65;2.28;;;45.70;40.40;;;;;;4983309;28;20222;-71
2023/07/08 11:04:48;;;;;;;6.78;2.20;;;45.90;37.70;;;;;;4985909;28;20222;-73
2023/07/08 11:07:43;;;;;;;2.83;2.15;;;45.90;39.30;;;;;;4981091;28;20835;-72
2023/07/08 11:10:39;;;;;;;2.35;2.10;;;42.30;38.90;;;;;;4978184;28;20222;-74
2023/07/08 11:13:32;;;;;;;2.30;2.08;;;39.10;40.60;;;;;;4997904;28;20322;-75
2023/07/08 11:16:25;;;;;;;3.67;2.00;;;40.90;45.80;;;;;;4994627;28;20229;-75
2023/07/08 11:19:20;;;;;;;1.85;1.75;;;44.00;41.10;;;;;;4985983;28;20233;-75
2023/07/08 11:22:15;;;;;;;2.25;2.05;;;44.80;41.00;;;;;;4973820;28;20357;-75
2023/07/08 11:25:06;;;;;;;1.83;1.63;;;43.90;38.10;;;;;;4993089;28;20229;-75
2023/07/08 11:27:58;;;;;;;2.33;2.03;;;42.90;41.20;;;;;;4984057;28;20559;-75
2023/07/08 11:30:51;;;;;;;3.25;2.22;;;41.90;40.00;;;;;;4989296;28;20299;-76
2023/07/08 11:33:42;;;;;;;3.13;2.20;;;41.30;40.90;;;;;;4977938;28;20272;-75
2023/07/08 11:36:33;;;;;;;4.70;2.20;;;38.00;44.00;;;;;;4974611;28;20306;-74
2023/07/08 11:39:32;;;;;;;2.95;2.58;;;36.40;45.70;;;;;;4973899;28;20242;-74
2023/07/08 11:42:25;;;;;;;2.50;2.30;;;35.40;47.70;;;;;;4981856;28;20227;-74
2023/07/08 11:45:29;;;;;;;2.72;2.40;;;35.00;48.20;;;;;;4985865;28;20428;-74
2023/07/08 11:48:23;;;;;;;2.80;2.47;;;34.60;48.90;;;;;;4985040;28;20308;-73
2023/07/08 11:51:20;;;;;;;5.60;2.35;;;34.70;48.40;;;;;;4982138;28;20214;-74
2023/07/08 11:54:21;;;;;;;2.40;2.20;;;34.10;49.30;;;;;;4972667;28;20337;-75
2023/07/08 11:57:19;;;;;;;3.75;2.50;;;40.20;45.10;;;;;;4977478;28;20237;-73
2023/07/08 12:00:18;;;;;;;2.70;2.40;;;38.80;44.30;;;;;;4973632;28;20926;-79
2023/07/08 12:03:20;;;;;;;5.50;2.40;;;44.20;39.90;;;;;;4973984;28;20316;-75
2023/07/08 12:06:44;;;;;;;4.32;2.20;;;46.70;37.40;;;;;;4976741;28;20685;-76
2023/07/08 12:09:40;;;;;;;2.72;2.30;;;43.40;37.50;;;;;;4972684;28;20551;-76
2023/07/08 12:12:36;;;;;;;5.38;2.92;;;47.10;39.00;;;;;;4977327;28;20229;-75
2023/07/08 12:15:28;;;;;;;3.70;2.33;;;;;;;;;;4978447;28;21366;-74
2023/07/08 12:18:29;;;;;;;5.32;2.35;;;47.60;36.40;;;;;;4976660;28;20230;-77
2023/07/08 12:21:18;;;;;;;3.20;2.40;;;44.80;37.50;;;;;;4978562;28;20309;-77
2023/07/08 12:24:08;;;;;;;5.47;2.00;;;43.00;40.50;;;;;;4969844;28;20366;-76
2023/07/08 12:26:58;;;;;;;4.88;2.20;;;47.30;37.60;;;;;;4976204;28;20686;-75
2023/07/08 12:29:49;;;;;;;2.45;2.10;;;48.90;35.50;;;;;;4973296;28;20781;-72
2023/07/08 12:32:38;;;;;;;4.55;2.35;;;43.40;37.20;;;;;;4980826;28;20234;-75
2023/07/08 12:35:29;;;;;;;2.92;2.20;;;39.70;40.70;;;;;;4979727;28;20248;-74
2023/07/08 12:38:24;;;;;;;4.38;2.40;;;45.10;38.90;;;;;;4979236;28;20229;-74
2023/07/08 12:41:17;;;;;;;5.60;2.50;;;48.10;35.80;;;;;;4977723;28;20681;-73
2023/07/08 12:44:15;;;;;;;5.95;2.72;;;46.80;36.70;;;;;;4986539;28;20234;-71
2023/07/08 12:47:04;;;;;;;3.10;2.38;;;47.90;35.10;;;;;;4970029;28;20214;-71
2023/07/08 12:49:53;;;;;;;3.40;2.22;;;48.90;33.70;;;;;;4976542;28;20591;-72
2023/07/08 12:52:45;;;;;;;4.13;2.17;;;50.00;35.20;;;;;;4978258;28;20244;-70
2023/07/08 12:55:34;;;;;;;2.42;2.13;;;48.90;34.40;;;;;;4973494;28;20634;-72
2023/07/08 12:58:27;;;;;;;6.90;2.80;;;48.10;34.50;;;;;;4982279;28;20593;-71
2023/07/08 13:01:21;;;;;;;3.20;2.10;;;42.00;37.50;;;;;;4970195;28;20214;-73
2023/07/08 13:04:14;;;;;;;8.93;2.67;;;38.50;41.90;;;;;;4977949;28;20222;-74
2023/07/08 13:07:04;;;;;;;4.38;2.50;;;36.80;42.70;;;;;;4979418;28;20595;-71
2023/07/08 13:09:54;;;;;;;4.35;2.65;;;35.70;42.70;;;;;;4976137;28;20324;-71
2023/07/08 13:12:44;;;;;;;8.27;2.90;;;34.40;45.20;;;;;;4975659;28;20245;-71
2023/07/08 13:15:37;;;;;;;8.35;2.80;;;33.90;46.60;;;;;;4974444;28;21103;-72
2023/07/08 13:18:32;;;;;;;3.63;2.60;;;33.40;46.60;;;;;;4984295;28;20214;-71
2023/07/08 13:21:24;;;;;;;3.85;2.60;;;33.20;46.80;;;;;;4985071;28;20226;-69
2023/07/08 13:24:14;;;;;;;2.78;2.53;;;33.00;49.10;;;;;;4991905;28;20227;-73
2023/07/08 13:27:09;;;;;;;3.78;2.75;;;32.70;49.10;;;;;;4986729;28;20740;-71
2023/07/08 13:30:16;;;;;;;5.78;2.63;;;32.60;47.80;;;;;;4978474;28;20677;-72
2023/07/08 13:33:17;;;;;;;5.82;4.07;;;32.50;48.50;;;;;;4985123;28;20230;-72
2023/07/08 13:36:10;;;;;;;3.78;2.67;;;32.30;49.70;;;;;;4979077;28;20257;-73
2023/07/08 13:39:05;;;;;;;4.40;2.90;;;32.00;47.40;;;;;;4981091;28;20310;-71
2023/07/08 13:41:54;;;;;;;3.22;2.92;;;31.90;49.20;;;;;;4976799;28;20234;-72
2023/07/08 13:44:45;;;;;;;3.53;3.00;;;31.80;50.40;;;;;;4970128;28;21020;-71
2023/07/08 13:47:34;;;;;;;5.78;3.13;;;31.80;49.40;;;;;;4982933;28;20223;-70
2023/07/08 13:50:31;;;;;;;7.55;3.20;;;31.60;49.40;;;;;;4976730;28;20241;-71
2023/07/08 13:53:24;;;;;;;5.93;2.90;;;31.50;50.50;;;;;;4980055;28;20223;-70
2023/07/08 13:56:15;;;;;;;4.30;2.80;;;31.60;51.00;;;;;;4980914;28;20250;-71
2023/07/08 13:59:07;;;;;;;3.15;2.85;;;31.30;50.50;;;;;;4976766;28;20506;-72
2023/07/08 14:01:58;;;;;;;6.47;3.08;;;31.00;50.00;;;;;;4980911;28;20630;-74
2023/07/08 14:04:47;;;;;;;5.72;3.00;;;30.90;50.40;;;;;;4973547;28;20222;-74
2023/07/08 14:07:36;;;;;;;5.32;3.13;;;30.90;50.20;;;;;;4977176;28;20327;-71
2023/07/08 14:10:27;;;;;;;3.58;2.72;;;30.70;50.00;;;;;;4981112;28;20222;-72
2023/07/08 14:13:17;;;;;;;6.43;3.20;;;30.60;50.50;;;;;;4975617;28;20237;-71
2023/07/08 14:16:21;;;;;;;4.32;3.00;;;30.50;51.10;;;;;;4986810;28;20242;-71
2023/07/08 14:19:16;;;;;;;4.25;3.05;;;30.40;51.00;;;;;;4965640;28;20753;-72
2023/07/08 14:22:20;;;;;;;4.45;3.20;;;30.40;52.70;;;;;;4996183;28;20732;-71
2023/07/08 14:25:11;;;;;;;4.68;3.10;;;30.50;49.60;;;;;;4974350;28;20218;-73
2023/07/08 14:28:02;;;;;;;3.25;2.90;;;30.50;50.50;;;;;;4988323;28;20694;-73
2023/07/08 14:30:52;;;;;;;5.50;3.10;;;30.50;50.40;;;;;;4970697;28;20572;-71
2023/07/08 14:33:41;;;;;;;3.20;2.70;;;30.40;51.40;;;;;;4988726;28;20226;-71
2023/07/08 14:36:30;;;;;;;5.13;3.15;;;30.30;51.20;;;;;;4981269;28;20284;-70
2023/07/08 14:39:21;;;;;;;7.50;3.13;;;30.30;50.50;;;;;;4983018;28;20241;-72
2023/07/08 14:42:17;;;;;;;4.47;3.00;;;30.20;51.60;;;;;;4983319;28;20223;-71
2023/07/08 14:45:10;;;;;;;4.72;3.17;;;30.10;51.50;;;;;;4979412;28;20214;-72
2023/07/08 14:48:00;;;;;;;4.15;3.08;;;30.00;51.80;;;;;;4972632;28;20305;-73
2023/07/08 14:50:49;;;;;;;4.68;3.33;;;30.00;52.10;;;;;;4984081;28;20234;-71
2023/07/08 14:53:39;;;;;;;4.15;3.05;;;29.90;53.30;;;;;;4988786;28;20232;-73